Portada
METAR-TAF:

METAR-TAF

Aeroports :

Kanoya, Japó

latitud: 31-22N, longitud: 130-50E, altitud: 65 m

Observació

L'informe es va fer fa 15 hores i 42 minuts, a les 09:53 UTC
Vent 2 kt del Nord
Temperatura 15°C
Humitat 63%
Pressió 1015 hPa
Visibilitat 10 km o més
Escasses núvols a una alçada de 3000 ft

METAR: RJFY 190953Z 35002KT 9999 FEW030 15/08 Q1015 RMK 1CU030 A2998

Hora: 10:35 (01:35 UTC)


TAF: manca

Observacions i pronòstics meteorològics de més de 4000 aeroports (METAR i TAF).

Les estacions disponibles són els punts grocs i vermells al mapa.

Posi el ratolí al punt desitjat per veure el nom de l'estació.

Feu clic per veure les observacions i els pronòstics meteorològics.

Per canviar el mapa: feu clic els botons verds amb una creu de color negre per apropar; al botó verd amb un guió per allunyar la imatge; o en les fletxes verdes per a mapes adjacents.


METAR-TAF: